createdAt,value
2023-04-09T00:01:18.845Z,25.90
2023-04-09T00:03:46.375Z,25.15
2023-04-09T00:06:19.791Z,25.02
2023-04-09T00:08:47.142Z,26.90
2023-04-09T00:11:20.880Z,24.63
2023-04-09T00:13:54.769Z,24.67
2023-04-09T00:16:22.395Z,25.33
2023-04-09T00:18:55.829Z,24.35
2023-04-09T00:21:23.316Z,26.20
2023-04-09T00:24:02.786Z,24.23
2023-04-09T00:26:29.663Z,25.65
2023-04-09T00:29:02.814Z,25.98
2023-04-09T00:31:29.715Z,24.98
2023-04-09T00:34:03.807Z,25.38
2023-04-09T00:36:31.284Z,25.10
2023-04-09T00:39:05.929Z,25.25
2023-04-09T00:41:39.839Z,25.02
2023-04-09T00:44:06.821Z,25.13
2023-04-09T00:46:39.966Z,23.75
2023-04-09T00:49:09.669Z,24.63
2023-04-09T00:51:43.942Z,24.27
2023-04-09T00:54:17.837Z,23.52
2023-04-09T00:56:52.834Z,23.60
2023-04-09T00:59:20.164Z,25.08
2023-04-09T01:01:53.848Z,24.73
2023-04-09T01:04:21.565Z,23.63
2023-04-09T01:07:00.968Z,24.85
2023-04-09T01:09:49.844Z,25.17
2023-04-09T01:12:39.906Z,22.70
2023-04-09T01:15:10.458Z,22.63
2023-04-09T01:18:20.846Z,22.25
2023-04-09T01:21:05.759Z,23.15
2023-04-09T01:23:50.771Z,22.55
2023-04-09T01:26:36.162Z,24.17
2023-04-09T01:29:10.861Z,23.73
2023-04-09T01:31:39.503Z,23.98
2023-04-09T01:34:15.923Z,22.10
2023-04-09T01:36:48.006Z,22.88
2023-04-09T01:39:21.760Z,23.73
2023-04-09T01:41:50.630Z,22.30
2023-04-09T01:44:24.882Z,23.27
2023-04-09T01:46:52.191Z,23.67
2023-04-09T01:49:25.936Z,23.10
2023-04-09T01:51:52.933Z,22.30
2023-04-09T01:54:26.910Z,23.35
2023-04-09T01:57:00.938Z,21.90
2023-04-09T01:59:27.966Z,22.73
2023-04-09T02:02:06.889Z,24.58
2023-04-09T02:04:37.264Z,23.10
2023-04-09T02:07:15.884Z,22.75
2023-04-09T02:09:46.612Z,22.38
2023-04-09T02:12:23.806Z,22.45
2023-04-09T02:14:52.746Z,22.20
2023-04-09T02:17:26.992Z,22.85
2023-04-09T02:19:53.937Z,22.27
2023-04-09T02:22:27.777Z,21.13
2023-04-09T02:25:01.543Z,22.85
2023-04-09T02:27:35.053Z,22.98
2023-04-09T02:30:08.934Z,23.15
2023-04-09T02:32:42.872Z,21.90
2023-04-09T02:35:17.018Z,22.33
2023-04-09T02:37:50.904Z,21.65
2023-04-09T02:40:26.869Z,22.05
2023-04-09T02:42:54.196Z,21.70
2023-04-09T02:45:27.865Z,21.70
2023-04-09T02:47:54.944Z,22.23
2023-04-09T02:50:29.503Z,22.20
2023-04-09T02:52:56.421Z,21.27
2023-04-09T02:55:25.420Z,21.23
2023-04-09T02:57:58.897Z,21.33
2023-04-09T03:00:29.258Z,22.65
2023-04-09T03:03:03.117Z,22.50
2023-04-09T03:05:30.069Z,23.20
2023-04-09T03:08:10.978Z,22.27
2023-04-09T03:10:38.129Z,22.58
2023-04-09T03:13:11.940Z,22.33
2023-04-09T03:15:45.052Z,22.73
2023-04-09T03:18:19.004Z,22.27
2023-04-09T03:20:46.670Z,21.90
2023-04-09T03:23:19.866Z,21.33
2023-04-09T03:26:04.131Z,23.05
2023-04-09T03:28:38.078Z,22.77
2023-04-09T03:31:05.021Z,22.90
2023-04-09T03:33:38.987Z,21.42
2023-04-09T03:36:06.653Z,22.95
2023-04-09T03:38:40.008Z,20.98
2023-04-09T03:41:13.976Z,22.77
2023-04-09T03:43:41.581Z,23.08
2023-04-09T03:46:25.037Z,22.50
2023-04-09T03:48:58.948Z,22.50
2023-04-09T03:51:27.562Z,23.10
2023-04-09T03:53:54.582Z,23.10
2023-04-09T03:56:27.940Z,23.30
2023-04-09T03:58:55.100Z,23.20
2023-04-09T04:01:29.118Z,22.25
2023-04-09T04:03:56.167Z,22.35
2023-04-09T04:06:29.942Z,21.98
2023-04-09T04:08:57.016Z,21.98
2023-04-09T04:11:29.965Z,21.17
2023-04-09T04:13:56.948Z,21.08
2023-04-09T04:16:30.948Z,21.88
2023-04-09T04:19:04.858Z,21.60
2023-04-09T04:21:31.824Z,21.48
2023-04-09T04:24:05.892Z,21.25
2023-04-09T04:26:39.256Z,21.02
2023-04-09T04:29:12.993Z,21.85
2023-04-09T04:31:39.987Z,20.40
2023-04-09T04:34:13.987Z,20.35
2023-04-09T04:36:43.799Z,22.48
2023-04-09T04:39:16.872Z,21.70
2023-04-09T04:41:43.912Z,20.40
2023-04-09T04:44:17.927Z,20.83
2023-04-09T04:46:45.523Z,21.38
2023-04-09T04:49:19.107Z,19.85
2023-04-09T04:51:53.029Z,21.98
2023-04-09T04:54:25.977Z,20.27
2023-04-09T04:56:53.139Z,20.37
2023-04-09T04:59:27.056Z,21.57
2023-04-09T05:01:54.095Z,20.03
2023-04-09T05:04:21.307Z,20.93
2023-04-09T05:06:55.150Z,20.87
2023-04-09T05:09:22.522Z,20.87
2023-04-09T05:11:55.829Z,21.80
2023-04-09T05:14:26.079Z,21.50
2023-04-09T05:16:53.200Z,21.50
2023-04-09T05:19:27.154Z,20.80
2023-04-09T05:21:54.145Z,21.90
2023-04-09T05:24:27.945Z,21.93
2023-04-09T05:27:01.692Z,21.80
2023-04-09T05:29:35.032Z,21.83
2023-04-09T05:32:02.514Z,20.83
2023-04-09T05:34:36.094Z,21.43
2023-04-09T05:37:03.050Z,20.47
2023-04-09T05:39:35.942Z,20.87
2023-04-09T05:42:12.843Z,22.40
2023-04-09T05:44:45.998Z,21.87
2023-04-09T05:47:12.813Z,22.47
2023-04-09T05:49:46.568Z,22.93
2023-04-09T05:52:20.014Z,21.73
2023-04-09T05:54:53.947Z,22.87
2023-04-09T05:57:20.810Z,21.93
2023-04-09T05:59:56.983Z,22.07
2023-04-09T06:02:34.150Z,22.77
2023-04-09T06:05:04.306Z,23.77
2023-04-09T06:07:38.020Z,24.03
2023-04-09T06:10:05.283Z,23.67
2023-04-09T06:12:40.918Z,24.17
2023-04-09T06:15:08.066Z,23.13
2023-04-09T06:17:42.041Z,25.07
2023-04-09T06:20:09.718Z,24.77
2023-04-09T06:22:50.000Z,24.57
2023-04-09T06:25:23.253Z,25.00
2023-04-09T06:27:56.955Z,25.50
2023-04-09T06:30:23.800Z,25.20
2023-04-09T06:32:57.950Z,26.27
2023-04-09T06:35:32.051Z,26.90
2023-04-09T06:37:59.193Z,25.77
2023-04-09T06:40:32.995Z,25.77
2023-04-09T06:42:59.932Z,26.17
2023-04-09T06:45:33.095Z,25.57
2023-04-09T06:48:07.002Z,26.43
2023-04-09T06:50:40.008Z,27.67
2023-04-09T06:53:07.213Z,26.43
2023-04-09T06:55:41.005Z,26.47
2023-04-09T06:58:08.088Z,28.10
2023-04-09T07:00:34.984Z,27.73
2023-04-09T07:03:08.127Z,26.33
2023-04-09T07:05:43.199Z,25.47
2023-04-09T07:08:17.031Z,26.73
2023-04-09T07:10:44.013Z,27.77
2023-04-09T07:13:17.981Z,27.43
2023-04-09T07:15:45.052Z,27.13
2023-04-09T07:18:19.070Z,26.08
2023-04-09T07:20:46.465Z,27.17
2023-04-09T07:23:20.013Z,26.30
2023-04-09T07:25:53.782Z,26.20
2023-04-09T07:28:27.101Z,26.27
2023-04-09T07:30:54.248Z,27.48
2023-04-09T07:33:27.970Z,27.63
2023-04-09T07:35:55.967Z,26.90
2023-04-09T07:38:29.940Z,26.42
2023-04-09T07:40:56.716Z,24.35
2023-04-09T07:43:29.980Z,26.95
2023-04-09T07:46:03.015Z,25.52
2023-04-09T07:48:30.014Z,26.35
2023-04-09T07:51:03.972Z,25.08
2023-04-09T07:53:30.998Z,26.63
2023-04-09T07:56:04.005Z,26.60
2023-04-09T07:58:31.204Z,26.80
2023-04-09T08:01:05.011Z,25.52
2023-04-09T08:03:32.391Z,25.65
2023-04-09T08:06:06.033Z,25.30
2023-04-09T08:08:38.991Z,23.42
2023-04-09T08:11:08.963Z,24.98
2023-04-09T08:13:41.996Z,24.70
2023-04-09T08:16:08.824Z,23.13
2023-04-09T08:18:41.979Z,23.48
2023-04-09T08:21:08.804Z,23.45
2023-04-09T08:23:42.044Z,23.33
2023-04-09T08:26:15.110Z,21.48
2023-04-09T08:28:49.025Z,20.27
2023-04-09T08:31:15.852Z,21.88
2023-04-09T08:33:43.172Z,21.75
2023-04-09T08:36:18.022Z,21.17
2023-04-09T08:38:47.391Z,23.73
2023-04-09T08:41:28.052Z,21.15
2023-04-09T08:43:58.141Z,22.05
2023-04-09T08:46:32.993Z,21.13
2023-04-09T08:49:06.013Z,21.42
2023-04-09T08:51:32.766Z,20.30
2023-04-09T08:54:08.008Z,21.42
2023-04-09T08:56:41.029Z,21.13
2023-04-09T08:59:07.823Z,20.40
2023-04-09T09:01:41.145Z,22.27
2023-04-09T09:04:09.523Z,21.35
2023-04-09T09:06:45.036Z,22.00
2023-04-09T09:09:17.713Z,20.02
2023-04-09T09:11:53.059Z,19.13
2023-04-09T09:14:20.774Z,20.63
2023-04-09T09:17:03.117Z,19.70
2023-04-09T09:19:33.737Z,17.48
2023-04-09T09:22:13.117Z,15.45
2023-04-09T09:24:51.507Z,16.25
2023-04-09T09:27:47.092Z,17.75
2023-04-09T09:30:22.226Z,15.90
2023-04-09T09:33:00.099Z,16.65
2023-04-09T09:35:29.552Z,16.60
2023-04-09T09:38:12.109Z,15.43
2023-04-09T09:40:38.984Z,16.33
2023-04-09T09:43:13.499Z,16.48
2023-04-09T09:45:50.116Z,17.15
2023-04-09T09:48:16.998Z,15.80
2023-04-09T09:50:53.007Z,16.25
2023-04-09T09:53:29.029Z,15.82
2023-04-09T09:56:00.123Z,14.80
2023-04-09T09:58:41.087Z,15.48
2023-04-09T10:01:20.144Z,14.27
2023-04-09T10:03:48.414Z,14.90
2023-04-09T10:06:22.026Z,12.65
2023-04-09T10:08:59.064Z,11.43
2023-04-09T10:11:33.154Z,10.93
2023-04-09T10:14:01.091Z,10.93
2023-04-09T10:16:28.602Z,10.77
2023-04-09T10:19:03.004Z,10.50
2023-04-09T10:21:54.191Z,11.20
2023-04-09T10:24:27.995Z,11.68
2023-04-09T10:27:09.163Z,10.63
2023-04-09T10:29:44.320Z,11.82
2023-04-09T10:32:18.125Z,12.05
2023-04-09T10:34:45.386Z,12.05
2023-04-09T10:37:27.058Z,10.65
2023-04-09T10:39:54.799Z,9.98
2023-04-09T10:42:34.069Z,9.02
2023-04-09T10:45:22.444Z,9.57
2023-04-09T10:47:53.880Z,10.00
2023-04-09T10:50:39.055Z,10.20
2023-04-09T10:53:13.074Z,10.18
2023-04-09T10:55:56.115Z,9.55
2023-04-09T10:58:23.023Z,9.70
2023-04-09T11:00:58.091Z,9.27
2023-04-09T11:03:27.909Z,10.38
2023-04-09T11:06:17.078Z,9.43
2023-04-09T11:08:45.098Z,8.57
2023-04-09T11:11:19.070Z,8.52
2023-04-09T11:13:46.175Z,9.05
2023-04-09T11:16:22.862Z,10.18
2023-04-09T11:18:51.168Z,8.32
2023-04-09T11:21:25.099Z,8.38
2023-04-09T11:23:52.780Z,8.18
2023-04-09T11:26:43.196Z,7.88
2023-04-09T11:29:10.450Z,8.00
2023-04-09T11:31:37.691Z,7.78
2023-04-09T11:34:11.346Z,9.55
2023-04-09T11:36:45.182Z,7.55
2023-04-09T11:39:14.893Z,7.47
2023-04-09T11:41:48.146Z,7.32
2023-04-09T11:44:21.145Z,8.25
2023-04-09T11:46:49.453Z,8.57
2023-04-09T11:49:24.093Z,8.70
2023-04-09T11:51:51.415Z,8.60
2023-04-09T11:54:25.183Z,8.70
2023-04-09T11:56:56.215Z,9.02
2023-04-09T11:59:29.102Z,8.45
2023-04-09T12:01:58.910Z,8.40
2023-04-09T12:04:32.209Z,8.82
2023-04-09T12:06:59.129Z,8.98
2023-04-09T12:09:26.098Z,8.70
2023-04-09T12:11:59.108Z,8.68
2023-04-09T12:14:32.114Z,9.40
2023-04-09T12:16:58.980Z,9.25
2023-04-09T12:19:33.163Z,9.88
2023-04-09T12:21:59.828Z,9.60
2023-04-09T12:24:34.071Z,9.60
2023-04-09T12:27:14.126Z,10.10
2023-04-09T12:29:40.996Z,9.23
2023-04-09T12:32:15.357Z,9.27
2023-04-09T12:34:49.096Z,9.80
2023-04-09T12:37:22.261Z,9.32
2023-04-09T12:39:49.573Z,10.13
2023-04-09T12:42:23.106Z,9.25
2023-04-09T12:44:49.915Z,8.90
2023-04-09T12:47:23.156Z,8.30
2023-04-09T12:49:50.455Z,8.93
2023-04-09T12:52:25.156Z,9.38
2023-04-09T12:54:59.132Z,9.63
2023-04-09T12:57:26.113Z,9.52
2023-04-09T12:59:59.171Z,9.10
2023-04-09T13:02:26.188Z,8.40
2023-04-09T13:05:00.114Z,8.35
2023-04-09T13:07:29.623Z,8.55
2023-04-09T13:10:04.110Z,9.10
2023-04-09T13:12:30.908Z,7.93
2023-04-09T13:15:04.176Z,8.25
2023-04-09T13:17:31.204Z,8.52
2023-04-09T13:20:04.229Z,7.80
2023-04-09T13:22:31.229Z,8.30
2023-04-09T13:25:11.511Z,8.18
2023-04-09T13:27:52.142Z,8.00
2023-04-09T13:30:19.068Z,9.40
2023-04-09T13:32:53.197Z,9.68
2023-04-09T13:35:26.193Z,9.55
2023-04-09T13:37:59.156Z,9.48
2023-04-09T13:40:26.151Z,9.82
2023-04-09T13:42:59.156Z,9.20
2023-04-09T13:45:25.903Z,9.18
2023-04-09T13:47:59.225Z,8.77
2023-04-09T13:50:26.549Z,8.82
2023-04-09T13:53:00.171Z,8.43
2023-04-09T13:55:27.064Z,8.93
2023-04-09T13:58:00.150Z,9.20
2023-04-09T14:00:27.337Z,8.63
2023-04-09T14:03:01.194Z,8.75
2023-04-09T14:05:28.900Z,8.27
2023-04-09T14:08:02.130Z,8.40
2023-04-09T14:10:29.047Z,8.77
2023-04-09T14:13:19.226Z,8.05
2023-04-09T14:15:52.274Z,8.23
2023-04-09T14:18:25.208Z,9.10
2023-04-09T14:20:58.216Z,8.50
2023-04-09T14:23:28.343Z,9.23
2023-04-09T14:26:01.158Z,8.90
2023-04-09T14:28:28.266Z,9.40
2023-04-09T14:31:01.224Z,8.27
2023-04-09T14:33:28.313Z,8.27
2023-04-09T14:36:02.243Z,8.48
2023-04-09T14:38:29.430Z,7.70
2023-04-09T14:41:03.207Z,8.52
2023-04-09T14:43:30.142Z,9.07
2023-04-09T14:46:03.234Z,8.85
2023-04-09T14:48:30.211Z,9.20
2023-04-09T14:51:04.250Z,9.63
2023-04-09T14:53:31.148Z,8.63
2023-04-09T14:56:04.245Z,8.75
2023-04-09T14:58:31.374Z,9.55
2023-04-09T15:00:58.208Z,8.93
2023-04-09T15:03:31.434Z,8.88
2023-04-09T15:05:59.649Z,8.93
2023-04-09T15:08:33.262Z,8.63
2023-04-09T15:11:00.111Z,9.15
2023-04-09T15:13:33.319Z,9.15
2023-04-09T15:16:00.272Z,8.63
2023-04-09T15:18:33.248Z,8.68
2023-04-09T15:21:00.166Z,8.13
2023-04-09T15:23:33.281Z,8.82
2023-04-09T15:26:06.680Z,8.38
2023-04-09T15:28:40.376Z,8.70
2023-04-09T15:31:14.205Z,8.02
2023-04-09T15:33:43.936Z,9.00
2023-04-09T15:36:18.274Z,9.27
2023-04-09T15:38:45.059Z,8.68
2023-04-09T15:41:18.275Z,8.88
2023-04-09T15:43:45.084Z,8.80
2023-04-09T15:46:18.295Z,9.07
2023-04-09T15:48:45.567Z,8.90
2023-04-09T15:51:19.211Z,8.93
2023-04-09T15:53:46.109Z,8.65
2023-04-09T15:56:16.223Z,8.63
2023-04-09T15:58:50.269Z,9.05
2023-04-09T16:01:24.340Z,9.05
2023-04-09T16:04:04.418Z,8.50
2023-04-09T16:06:38.217Z,8.23
2023-04-09T16:09:05.054Z,8.73
2023-04-09T16:11:38.256Z,8.63
2023-04-09T16:14:04.986Z,8.27
2023-04-09T16:16:38.358Z,8.90
2023-04-09T16:19:11.432Z,9.32
2023-04-09T16:21:38.930Z,8.80
2023-04-09T16:24:12.215Z,9.00
2023-04-09T16:26:46.298Z,8.75
2023-04-09T16:29:20.342Z,9.30
2023-04-09T16:31:47.372Z,9.23
2023-04-09T16:34:20.252Z,9.88
2023-04-09T16:36:47.414Z,9.10
2023-04-09T16:39:22.216Z,9.18
2023-04-09T16:41:49.585Z,8.70
2023-04-09T16:44:23.236Z,9.10
2023-04-09T16:46:56.456Z,9.93
2023-04-09T16:49:30.317Z,8.73
2023-04-09T16:51:57.515Z,9.05
2023-04-09T16:54:24.241Z,9.55
2023-04-09T16:56:57.232Z,9.23
2023-04-09T16:59:24.121Z,9.73
2023-04-09T17:02:04.438Z,8.45
2023-04-09T17:04:31.873Z,9.18
2023-04-09T17:07:05.279Z,9.07
2023-04-09T17:09:32.097Z,9.50
2023-04-09T17:12:05.347Z,9.02
2023-04-09T17:14:33.897Z,9.38
2023-04-09T17:17:07.468Z,9.10
2023-04-09T17:19:34.733Z,9.35
2023-04-09T17:22:08.260Z,9.05
2023-04-09T17:24:43.317Z,8.68
2023-04-09T17:27:23.289Z,8.77
2023-04-09T17:29:56.330Z,8.65
2023-04-09T17:32:29.338Z,9.25
2023-04-09T17:34:56.258Z,8.45
2023-04-09T17:37:29.339Z,8.68
2023-04-09T17:40:02.324Z,8.15
2023-04-09T17:42:29.989Z,9.02
2023-04-09T17:45:03.301Z,8.43
2023-04-09T17:47:30.077Z,9.38
2023-04-09T17:50:03.390Z,10.88
2023-04-09T17:52:36.745Z,9.20
2023-04-09T17:55:14.424Z,8.77
2023-04-09T17:57:42.953Z,9.18
2023-04-09T18:00:17.336Z,10.23
2023-04-09T18:02:51.626Z,9.68
2023-04-09T18:05:25.564Z,9.90
2023-04-09T18:07:59.453Z,9.82
2023-04-09T18:10:26.366Z,9.90
2023-04-09T18:12:59.313Z,9.60
2023-04-09T18:15:26.139Z,9.93
2023-04-09T18:17:59.432Z,10.00
2023-04-09T18:20:26.699Z,9.82
2023-04-09T18:23:00.317Z,10.27
2023-04-09T18:25:47.356Z,10.38
2023-04-09T18:28:20.410Z,10.35
2023-04-09T18:30:47.463Z,9.73
2023-04-09T18:33:21.817Z,10.05
2023-04-09T18:35:48.694Z,9.93
2023-04-09T18:38:22.300Z,11.15
2023-04-09T18:40:55.373Z,10.45
2023-04-09T18:43:29.311Z,9.95
2023-04-09T18:45:57.329Z,9.95
2023-04-09T18:48:31.398Z,10.10
2023-04-09T18:50:59.178Z,10.52
2023-04-09T18:53:33.308Z,10.35
2023-04-09T18:56:06.329Z,10.65
2023-04-09T18:58:40.388Z,11.57
2023-04-09T19:01:18.392Z,12.43
2023-04-09T19:03:45.672Z,15.35
2023-04-09T19:06:21.398Z,16.45
2023-04-09T19:08:50.242Z,17.15
2023-04-09T19:11:23.385Z,18.27
2023-04-09T19:13:50.325Z,18.30
2023-04-09T19:16:24.360Z,19.50
2023-04-09T19:18:51.526Z,18.50
2023-04-09T19:21:25.329Z,18.23
2023-04-09T19:23:58.339Z,28.75
2023-04-09T19:26:45.324Z,17.95
2023-04-09T19:29:18.521Z,18.10
2023-04-09T19:31:52.403Z,19.70
2023-04-09T19:34:25.446Z,21.60
2023-04-09T19:36:58.382Z,23.75
2023-04-09T19:39:25.324Z,24.92
2023-04-09T19:41:58.354Z,26.08
2023-04-09T19:44:31.400Z,27.45
2023-04-09T19:47:04.416Z,30.42
2023-04-09T19:49:37.378Z,29.75
2023-04-09T19:52:07.096Z,31.95
2023-04-09T19:54:44.324Z,32.03
2023-04-09T19:57:17.342Z,30.95
2023-04-09T19:59:50.359Z,30.08
2023-04-09T20:02:23.422Z,31.13
2023-04-09T20:04:50.925Z,31.20
2023-04-09T20:07:17.890Z,29.80
2023-04-09T20:09:51.356Z,28.98
2023-04-09T20:12:24.386Z,29.98
2023-04-09T20:14:51.190Z,30.83
2023-04-09T20:17:26.382Z,28.95
2023-04-09T20:19:53.311Z,33.25
2023-04-09T20:22:26.378Z,31.92
2023-04-09T20:24:53.151Z,32.60
2023-04-09T20:27:33.323Z,29.83
2023-04-09T20:30:00.064Z,31.63
2023-04-09T20:32:33.411Z,30.73
2023-04-09T20:35:00.232Z,31.38
2023-04-09T20:37:33.438Z,30.92
2023-04-09T20:40:00.519Z,30.25
2023-04-09T20:42:27.582Z,32.47
2023-04-09T20:45:01.941Z,32.55
2023-04-09T20:47:29.057Z,33.60
2023-04-09T20:50:06.393Z,32.92
2023-04-09T20:52:39.389Z,34.05
2023-04-09T20:55:13.543Z,33.25
2023-04-09T20:57:40.471Z,35.10
2023-04-09T21:00:08.583Z,33.88
2023-04-09T21:02:41.609Z,35.50
2023-04-09T21:05:23.666Z,34.63
2023-04-09T21:07:53.844Z,33.63
2023-04-09T21:10:27.452Z,35.10
2023-04-09T21:12:54.277Z,34.60
2023-04-09T21:15:27.426Z,34.13
2023-04-09T21:17:54.684Z,34.75
2023-04-09T21:20:28.502Z,34.40
2023-04-09T21:23:01.435Z,35.22
2023-04-09T21:25:35.904Z,35.80
2023-04-09T21:28:16.457Z,35.25
2023-04-09T21:30:43.178Z,35.95
2023-04-09T21:33:16.456Z,36.63
2023-04-09T21:35:43.331Z,37.38
2023-04-09T21:38:16.438Z,38.40
2023-04-09T21:40:43.373Z,37.05
2023-04-09T21:43:16.465Z,37.13
2023-04-09T21:45:43.214Z,38.20
2023-04-09T21:48:16.414Z,39.85
2023-04-09T21:50:43.195Z,38.22
2023-04-09T21:53:16.394Z,41.53
2023-04-09T21:55:43.158Z,41.65
2023-04-09T21:58:18.417Z,42.05
2023-04-09T22:00:51.365Z,40.15
2023-04-09T22:03:24.787Z,40.13
2023-04-09T22:05:58.426Z,40.03
2023-04-09T22:08:25.733Z,40.85
2023-04-09T22:10:59.399Z,42.97
2023-04-09T22:13:26.140Z,42.33
2023-04-09T22:15:59.537Z,42.15
2023-04-09T22:18:26.326Z,41.85
2023-04-09T22:20:59.532Z,40.75
2023-04-09T22:23:26.456Z,41.30
2023-04-09T22:26:11.516Z,42.55
2023-04-09T22:28:44.617Z,40.85
2023-04-09T22:31:18.591Z,42.60
2023-04-09T22:33:45.672Z,40.35
2023-04-09T22:36:19.568Z,42.47
2023-04-09T22:38:46.552Z,44.63
2023-04-09T22:41:20.536Z,43.42
2023-04-09T22:43:54.503Z,43.00
2023-04-09T22:46:28.520Z,45.28
2023-04-09T22:49:04.990Z,44.40
2023-04-09T22:51:34.962Z,44.80
2023-04-09T22:54:08.625Z,45.65
2023-04-09T22:56:36.953Z,43.42
2023-04-09T22:59:10.548Z,45.50
2023-04-09T23:01:37.619Z,43.80
2023-04-09T23:04:12.487Z,44.60
2023-04-09T23:06:39.331Z,44.33
2023-04-09T23:09:12.519Z,44.50
2023-04-09T23:11:39.326Z,45.05
2023-04-09T23:14:12.501Z,47.40
2023-04-09T23:16:39.536Z,42.90
2023-04-09T23:19:06.735Z,46.00
2023-04-09T23:21:40.658Z,47.92
2023-04-09T23:24:07.648Z,48.05
2023-04-09T23:26:41.590Z,48.63
2023-04-09T23:29:14.983Z,46.90
2023-04-09T23:31:48.563Z,45.28
2023-04-09T23:34:15.694Z,47.10
2023-04-09T23:36:49.682Z,47.83
2023-04-09T23:39:16.687Z,47.75
2023-04-09T23:41:50.580Z,45.35
2023-04-09T23:44:17.552Z,45.97
2023-04-09T23:46:44.672Z,48.55
2023-04-09T23:49:18.515Z,45.13
2023-04-09T23:51:46.023Z,48.72
2023-04-09T23:54:19.552Z,48.40
2023-04-09T23:56:47.209Z,49.25
2023-04-09T23:59:20.525Z,49.30
